Time;durP1;ratioP1;P1;durP2;ratioP2;P2;SDS_P1;SDS_P2;PMS_P1;PMS_P2;Temp;Humidity;BMP_temperature;BMP_pressure;BME280_temperature;BME280_humidity;BME280_pressure;Samples;Min_cycle;Max_cycle;Signal;HPM_P1;HPM_P2
2021/01/18 00:00:23;;;;;;;104.05;46.58;;;0.10;99.90;;;;;;4972545;28;20023;-76
2021/01/18 00:02:48;;;;;;;114.78;47.63;;;0.00;99.90;;;;;;4972288;28;20042;-76
2021/01/18 00:05:14;;;;;;;109.93;49.05;;;0.00;99.90;;;;;;4971935;28;20035;-76
2021/01/18 00:07:49;;;;;;;103.20;45.70;;;0.00;99.90;;;;;;4973453;28;20069;-77
2021/01/18 00:10:19;;;;;;;110.85;48.75;;;0.00;99.90;;;;;;4972536;28;20081;-76
2021/01/18 00:12:47;;;;;;;123.00;47.08;;;0.00;99.90;;;;;;4972964;28;20085;-77
2021/01/18 00:15:14;;;;;;;123.82;51.17;;;0.00;99.90;;;;;;4973374;28;20050;-77
2021/01/18 00:17:39;;;;;;;125.32;49.13;;;0.00;99.90;;;;;;4973366;28;20029;-77
2021/01/18 00:20:05;;;;;;;124.10;50.72;;;0.00;99.90;;;;;;4973466;28;20018;-77
2021/01/18 00:22:31;;;;;;;127.43;51.38;;;0.00;99.90;;;;;;4973255;28;20035;-77
2021/01/18 00:24:57;;;;;;;139.07;50.70;;;0.00;99.90;;;;;;4973797;28;20034;-77
2021/01/18 00:27:22;;;;;;;118.25;49.22;;;0.00;99.90;;;;;;4971637;28;20035;-76
2021/01/18 00:29:48;;;;;;;129.52;52.67;;;0.00;99.90;;;;;;4973474;28;20034;-76
2021/01/18 00:32:15;;;;;;;140.27;52.83;;;0.10;99.90;;;;;;4973042;28;20039;-77
2021/01/18 00:34:40;;;;;;;127.68;50.97;;;0.00;99.90;;;;;;4972793;28;20031;-77
2021/01/18 00:37:06;;;;;;;148.85;56.50;;;0.00;99.90;;;;;;4973224;28;20093;-76
2021/01/18 00:39:32;;;;;;;144.60;52.28;;;0.00;99.90;;;;;;4973171;28;20368;-77
2021/01/18 00:41:57;;;;;;;127.50;51.67;;;0.10;99.90;;;;;;4972920;28;20058;-77
2021/01/18 00:44:23;;;;;;;132.48;54.42;;;0.10;99.90;;;;;;4972352;28;20027;-77
2021/01/18 00:46:48;;;;;;;144.52;54.47;;;0.10;99.90;;;;;;4972251;28;20074;-76
2021/01/18 00:49:14;;;;;;;160.20;56.80;;;0.10;99.90;;;;;;4987845;28;20438;-76
2021/01/18 00:51:39;;;;;;;150.40;55.55;;;0.10;99.90;;;;;;4972978;28;20034;-76
2021/01/18 00:54:06;;;;;;;165.98;59.15;;;0.00;99.90;;;;;;4987383;28;20410;-76
2021/01/18 00:56:31;;;;;;;147.63;55.88;;;0.00;99.90;;;;;;4972902;28;20034;-77
2021/01/18 00:58:57;;;;;;;155.68;59.30;;;0.10;99.90;;;;;;4968149;28;20024;-76
2021/01/18 01:01:23;;;;;;;154.75;58.72;;;0.10;99.90;;;;;;4983914;28;20033;-76
2021/01/18 01:03:48;;;;;;;161.35;56.92;;;0.10;99.90;;;;;;4972814;28;20035;-76
2021/01/18 01:06:14;;;;;;;171.30;60.55;;;0.10;99.90;;;;;;4972849;28;20428;-76
2021/01/18 01:08:39;;;;;;;162.65;59.45;;;0.10;99.90;;;;;;4972803;28;20034;-77
2021/01/18 01:11:05;;;;;;;177.05;59.38;;;0.10;99.90;;;;;;4972391;28;20098;-77
2021/01/18 01:13:31;;;;;;;162.85;58.28;;;0.10;99.90;;;;;;4972583;28;20502;-76
2021/01/18 01:15:59;;;;;;;179.98;62.55;;;0.10;99.90;;;;;;4971384;28;20026;-76
2021/01/18 01:18:25;;;;;;;181.10;61.78;;;0.10;99.90;;;;;;4971552;28;20114;-76
2021/01/18 01:20:51;;;;;;;173.20;62.20;;;0.10;99.90;;;;;;4972562;28;20058;-76
2021/01/18 01:23:17;;;;;;;199.10;65.22;;;0.10;99.90;;;;;;4972684;28;20137;-77
2021/01/18 01:25:42;;;;;;;186.45;63.30;;;0.10;99.90;;;;;;4971392;28;20065;-76
2021/01/18 01:28:08;;;;;;;203.45;61.17;;;0.10;99.90;;;;;;4972057;28;20616;-77
2021/01/18 01:30:34;;;;;;;173.93;62.10;;;0.10;99.90;;;;;;4972457;28;20533;-76
2021/01/18 01:33:00;;;;;;;198.65;66.32;;;0.10;99.90;;;;;;4971321;28;20523;-77
2021/01/18 01:35:28;;;;;;;179.40;63.90;;;0.10;99.90;;;;;;4972429;28;20105;-77
2021/01/18 01:37:55;;;;;;;204.10;65.72;;;0.10;99.90;;;;;;4971159;28;20023;-77
2021/01/18 01:40:21;;;;;;;182.02;62.78;;;0.10;99.90;;;;;;4972540;28;20023;-76
2021/01/18 01:42:47;;;;;;;200.38;64.47;;;0.10;99.90;;;;;;4972079;28;20034;-76
2021/01/18 01:45:14;;;;;;;186.55;63.08;;;0.20;99.90;;;;;;4971108;28;20033;-77
2021/01/18 01:47:46;;;;;;;200.05;65.22;;;0.20;99.90;;;;;;4972276;28;20027;-77
2021/01/18 01:50:28;;;;;;;215.55;65.70;;;0.20;99.90;;;;;;4987406;28;20499;-77
2021/01/18 01:53:12;;;;;;;224.65;68.68;;;0.20;99.90;;;;;;4972312;28;20027;-77
2021/01/18 01:55:38;;;;;;;222.80;65.93;;;0.20;99.90;;;;;;4971040;28;20393;-76
2021/01/18 01:58:06;;;;;;;212.85;68.68;;;0.20;99.90;;;;;;4974322;28;20030;-77
2021/01/18 02:00:38;;;;;;;203.77;66.15;;;0.20;99.90;;;;;;4974633;28;20026;-77
2021/01/18 02:03:05;;;;;;;215.40;73.43;;;0.20;99.90;;;;;;4975966;28;20033;-77
2021/01/18 02:05:30;;;;;;;224.55;68.35;;;0.20;99.90;;;;;;4974338;28;20117;-76
2021/01/18 02:07:59;;;;;;;227.35;69.13;;;0.20;99.90;;;;;;4975737;28;20455;-77
2021/01/18 02:10:25;;;;;;;237.63;69.13;;;0.20;99.90;;;;;;4975758;28;20055;-76
2021/01/18 02:12:50;;;;;;;229.57;69.47;;;0.20;99.90;;;;;;4974081;28;20093;-77
2021/01/18 02:15:55;;;;;;;204.73;67.18;;;0.20;99.90;;;;;;4975204;28;20030;-78
2021/01/18 02:18:26;;;;;;;278.83;71.70;;;0.20;99.90;;;;;;4975599;28;20023;-77
2021/01/18 02:21:16;;;;;;;235.88;72.57;;;0.20;99.90;;;;;;4975481;28;20059;-76
2021/01/18 02:24:00;;;;;;;230.43;68.93;;;0.20;99.90;;;;;;4975503;28;20034;-77
2021/01/18 02:27:06;;;;;;;264.13;73.82;;;0.20;99.90;;;;;;4973933;28;20034;-76
2021/01/18 02:29:59;;;;;;;292.45;72.45;;;0.30;99.90;;;;;;4975249;28;20035;-77
2021/01/18 02:32:50;;;;;;;263.80;74.30;;;0.30;99.90;;;;;;4975100;28;20027;-77
2021/01/18 02:35:34;;;;;;;249.50;71.60;;;0.30;99.90;;;;;;4975179;28;20027;-77
2021/01/18 02:38:50;;;;;;;264.88;71.03;;;0.30;99.90;;;;;;4975325;28;20035;-77
2021/01/18 02:41:37;;;;;;;274.38;71.43;;;0.30;99.90;;;;;;4941463;28;20475;-77
2021/01/18 02:44:15;;;;;;;343.90;75.68;;;0.30;99.90;;;;;;4974721;28;20035;-76
2021/01/18 02:46:42;;;;;;;261.10;72.45;;;0.30;99.90;;;;;;4974960;28;20695;-77
2021/01/18 02:49:09;;;;;;;264.10;69.50;;;0.30;99.90;;;;;;4975037;28;20027;-76
2021/01/18 02:51:39;;;;;;;311.25;72.20;;;0.30;99.90;;;;;;4974748;28;20035;-77
2021/01/18 02:54:05;;;;;;;247.80;69.03;;;0.30;99.90;;;;;;4973567;28;20031;-77
2021/01/18 02:56:33;;;;;;;315.35;70.10;;;0.30;99.90;;;;;;4974976;28;20019;-77
2021/01/18 02:59:00;;;;;;;263.35;68.05;;;0.30;99.90;;;;;;4974441;28;20494;-77
2021/01/18 03:01:59;;;;;;;282.20;63.83;;;0.40;99.90;;;;;;4974907;28;20031;-77
2021/01/18 03:05:02;;;;;;;276.30;65.18;;;0.40;99.90;;;;;;4974569;28;20019;-76
2021/01/18 03:07:55;;;;;;;192.77;60.65;;;0.40;99.90;;;;;;4974591;28;20019;-77
2021/01/18 03:10:38;;;;;;;353.98;67.13;;;0.40;99.90;;;;;;4972195;28;20053;-76
2021/01/18 03:13:18;;;;;;;370.40;68.95;;;0.40;99.90;;;;;;4969822;28;20114;-77
2021/01/18 03:15:46;;;;;;;236.77;60.20;;;0.40;99.90;;;;;;4969966;28;20117;-76
2021/01/18 03:18:17;;;;;;;227.55;59.00;;;0.40;99.90;;;;;;4962924;28;20023;-77
2021/01/18 03:20:44;;;;;;;519.03;70.50;;;0.40;99.90;;;;;;4974243;28;20042;-77
2021/01/18 03:23:10;;;;;;;379.92;61.38;;;0.40;99.90;;;;;;4974440;28;20042;-77
2021/01/18 03:25:55;;;;;;;223.07;55.60;;;0.40;99.90;;;;;;4974234;28;20031;-77
2021/01/18 03:28:23;;;;;;;273.63;59.08;;;0.50;99.90;;;;;;4974163;28;20027;-76
2021/01/18 03:30:49;;;;;;;480.00;64.95;;;0.40;99.90;;;;;;4989191;28;20034;-77
2021/01/18 03:33:16;;;;;;;191.68;53.42;;;0.50;99.90;;;;;;4974175;28;20023;-77
2021/01/18 03:35:42;;;;;;;261.45;58.20;;;0.50;99.90;;;;;;4973813;28;20030;-77
2021/01/18 03:38:08;;;;;;;496.40;66.93;;;0.50;99.90;;;;;;4974218;28;20026;-77
2021/01/18 03:40:34;;;;;;;430.95;64.07;;;0.50;99.90;;;;;;4972981;28;20023;-77
2021/01/18 03:43:08;;;;;;;252.95;58.60;;;0.50;99.90;;;;;;4973185;28;20410;-77
2021/01/18 03:45:39;;;;;;;286.60;59.42;;;0.50;99.90;;;;;;4972866;28;20105;-77
2021/01/18 03:48:06;;;;;;;286.30;59.88;;;0.50;99.90;;;;;;4989001;28;20031;-77
2021/01/18 03:50:32;;;;;;;226.57;55.47;;;0.50;99.90;;;;;;4973977;28;20027;-77
2021/01/18 03:52:58;;;;;;;316.83;59.10;;;0.50;99.90;;;;;;4973433;28;20078;-77
2021/01/18 03:55:23;;;;;;;164.60;53.17;;;0.50;99.90;;;;;;4973650;28;20030;-77
2021/01/18 03:57:51;;;;;;;289.13;57.38;;;0.50;99.90;;;;;;4972440;28;20483;-77
2021/01/18 04:00:20;;;;;;;231.07;52.90;;;0.60;99.90;;;;;;4973760;28;20030;-77
2021/01/18 04:02:45;;;;;;;311.83;56.33;;;0.60;99.90;;;;;;4973734;28;20038;-77
2021/01/18 04:05:12;;;;;;;320.35;58.17;;;0.60;99.90;;;;;;4973180;28;20479;-77
2021/01/18 04:07:37;;;;;;;261.27;54.55;;;0.60;99.90;;;;;;4973696;28;20034;-77
2021/01/18 04:10:04;;;;;;;235.07;52.80;;;0.60;99.90;;;;;;4988517;28;20038;-77
2021/01/18 04:12:30;;;;;;;487.52;65.35;;;0.60;99.90;;;;;;4971605;28;20114;-76
2021/01/18 04:14:58;;;;;;;383.33;58.17;;;0.60;99.90;;;;;;4954066;29;20080;-77
2021/01/18 04:17:24;;;;;;;198.80;48.78;;;0.60;99.90;;;;;;4952913;29;20027;-77
2021/01/18 04:19:50;;;;;;;417.40;60.97;;;0.60;99.90;;;;;;4952842;28;20388;-77
2021/01/18 04:22:15;;;;;;;204.57;49.67;;;0.60;99.90;;;;;;4959603;28;20027;-77
2021/01/18 04:24:41;;;;;;;200.07;47.40;;;0.70;99.90;;;;;;4973174;28;20077;-77
2021/01/18 04:27:09;;;;;;;355.40;55.35;;;0.60;99.90;;;;;;4973260;28;20026;-77
2021/01/18 04:29:36;;;;;;;432.48;57.42;;;0.60;99.90;;;;;;4972928;28;20030;-76
2021/01/18 04:32:03;;;;;;;196.63;46.65;;;0.60;99.90;;;;;;4973179;28;20031;-77
2021/01/18 04:34:28;;;;;;;404.05;55.10;;;0.60;99.90;;;;;;4971933;28;20050;-77
2021/01/18 04:36:54;;;;;;;203.90;49.30;;;0.60;99.90;;;;;;4972046;28;20057;-77
2021/01/18 04:39:19;;;;;;;311.70;51.83;;;0.60;99.90;;;;;;4972810;28;20058;-77
2021/01/18 04:41:46;;;;;;;362.92;57.15;;;0.60;99.90;;;;;;4973048;28;20047;-77
2021/01/18 04:44:16;;;;;;;218.25;50.30;;;0.50;99.90;;;;;;4972852;28;20041;-77
2021/01/18 04:46:43;;;;;;;381.15;54.30;;;0.50;99.90;;;;;;4973225;28;20027;-77
2021/01/18 04:49:10;;;;;;;324.27;57.33;;;0.50;99.90;;;;;;4972948;28;20038;-77
2021/01/18 04:51:44;;;;;;;334.00;53.55;;;0.50;99.90;;;;;;4971717;28;20031;-77
2021/01/18 04:54:13;;;;;;;386.83;58.42;;;0.50;99.90;;;;;;4972722;28;20031;-77
2021/01/18 04:57:06;;;;;;;241.45;49.20;;;0.50;99.90;;;;;;4973077;28;20026;-77
2021/01/18 04:59:39;;;;;;;196.20;48.88;;;0.50;99.90;;;;;;4972735;28;20442;-77
2021/01/18 05:02:24;;;;;;;352.90;57.28;;;0.50;99.90;;;;;;4972974;28;20583;-77
2021/01/18 05:04:58;;;;;;;248.75;49.53;;;0.50;99.90;;;;;;4972638;28;20074;-77
2021/01/18 05:07:32;;;;;;;311.02;48.92;;;0.50;99.90;;;;;;4972985;28;20023;-76
2021/01/18 05:10:08;;;;;;;197.13;46.58;;;0.50;99.90;;;;;;4972680;28;20077;-77
2021/01/18 05:12:55;;;;;;;176.80;42.70;;;0.50;99.90;;;;;;4972265;28;20058;-77
2021/01/18 05:15:22;;;;;;;455.90;61.30;;;0.50;99.90;;;;;;4971453;28;20514;-77
2021/01/18 05:17:49;;;;;;;207.70;40.63;;;0.50;99.90;;;;;;4972756;28;20085;-77
2021/01/18 05:20:17;;;;;;;359.17;49.58;;;0.50;99.90;;;;;;4972686;28;20026;-77
2021/01/18 05:22:45;;;;;;;133.88;40.33;;;0.50;99.90;;;;;;4972771;28;20094;-77
2021/01/18 05:25:13;;;;;;;125.45;37.75;;;0.50;99.90;;;;;;4971324;28;20023;-77
2021/01/18 05:28:02;;;;;;;144.38;42.55;;;0.50;99.90;;;;;;4972356;28;20029;-77
2021/01/18 05:30:30;;;;;;;118.50;38.63;;;0.60;99.90;;;;;;4971477;28;20563;-77
2021/01/18 05:33:15;;;;;;;93.65;36.47;;;0.60;99.90;;;;;;4974888;28;20105;-78
2021/01/18 05:35:48;;;;;;;131.90;39.53;;;0.60;99.90;;;;;;4976270;28;20496;-77
2021/01/18 05:38:14;;;;;;;91.20;34.58;;;0.60;99.90;;;;;;4976256;28;20102;-77
2021/01/18 05:40:45;;;;;;;102.20;34.13;;;0.60;99.90;;;;;;4974949;28;20073;-77
2021/01/18 05:43:14;;;;;;;127.25;36.08;;;0.60;99.90;;;;;;4975756;28;20030;-78
2021/01/18 05:45:41;;;;;;;104.70;35.05;;;0.60;99.90;;;;;;4975917;28;20037;-77
2021/01/18 05:48:10;;;;;;;146.10;37.47;;;0.60;99.90;;;;;;4976151;28;20066;-77
2021/01/18 05:50:40;;;;;;;121.72;37.83;;;0.60;99.90;;;;;;4973723;28;20031;-77
2021/01/18 05:53:25;;;;;;;117.13;35.85;;;0.60;99.90;;;;;;4976026;28;20117;-77
2021/01/18 05:55:51;;;;;;;92.97;33.22;;;0.60;99.90;;;;;;4975942;28;20419;-77
2021/01/18 05:58:30;;;;;;;96.35;35.22;;;0.70;99.90;;;;;;4971155;28;20023;-77
2021/01/18 06:00:56;;;;;;;87.93;32.22;;;0.70;99.90;;;;;;4956680;29;20600;-77
2021/01/18 06:03:27;;;;;;;99.53;36.95;;;0.70;99.90;;;;;;4956641;28;20046;-77
2021/01/18 06:05:54;;;;;;;103.72;34.28;;;0.70;99.90;;;;;;4956399;29;20105;-77
2021/01/18 06:08:20;;;;;;;100.47;33.75;;;0.70;99.90;;;;;;4961986;28;20023;-77
2021/01/18 06:10:50;;;;;;;97.53;32.83;;;0.70;99.90;;;;;;4976130;28;20031;-77
2021/01/18 06:13:32;;;;;;;75.45;28.95;;;0.70;99.90;;;;;;4975578;28;20027;-77
2021/01/18 06:16:01;;;;;;;92.50;32.45;;;0.60;99.90;;;;;;4974321;28;20369;-77
2021/01/18 06:18:29;;;;;;;96.03;32.55;;;0.60;99.90;;;;;;4970939;28;20023;-77
2021/01/18 06:20:58;;;;;;;89.82;29.95;;;0.60;99.90;;;;;;4956389;29;20102;-77
2021/01/18 06:23:25;;;;;;;84.35;29.45;;;0.70;99.90;;;;;;4964257;28;20081;-77
2021/01/18 06:25:52;;;;;;;91.28;31.80;;;0.70;99.90;;;;;;4974136;28;20030;-77
2021/01/18 06:28:38;;;;;;;94.82;30.90;;;0.70;99.90;;;;;;4974097;28;20033;-77
2021/01/18 06:31:06;;;;;;;88.00;30.23;;;0.70;99.90;;;;;;4975539;28;20372;-77
2021/01/18 06:33:37;;;;;;;91.45;27.80;;;0.70;99.90;;;;;;4975287;28;20031;-77
2021/01/18 06:36:19;;;;;;;92.40;30.33;;;0.70;99.90;;;;;;4975240;28;20519;-77
2021/01/18 06:38:57;;;;;;;94.60;31.25;;;0.70;99.90;;;;;;4974964;28;20053;-77
2021/01/18 06:41:24;;;;;;;90.82;29.52;;;0.60;99.90;;;;;;4975245;28;20072;-77
2021/01/18 06:43:50;;;;;;;103.45;33.13;;;0.70;99.90;;;;;;4973685;28;20038;-77
2021/01/18 06:46:18;;;;;;;99.68;32.42;;;0.60;99.90;;;;;;4975223;28;20027;-77
2021/01/18 06:48:46;;;;;;;101.95;30.05;;;0.70;99.90;;;;;;4974829;28;20034;-77
2021/01/18 06:51:14;;;;;;;95.85;30.52;;;0.70;99.90;;;;;;4973810;28;20141;-77
2021/01/18 06:53:43;;;;;;;117.28;32.20;;;0.60;99.90;;;;;;4974697;28;20026;-77
2021/01/18 06:56:15;;;;;;;107.15;30.38;;;0.70;99.90;;;;;;4973800;28;20018;-77
2021/01/18 06:58:49;;;;;;;100.43;31.38;;;0.70;99.90;;;;;;4974633;28;20030;-77
2021/01/18 07:01:31;;;;;;;105.00;29.73;;;0.70;99.90;;;;;;4974685;28;20027;-77
2021/01/18 07:04:07;;;;;;;86.30;28.52;;;0.70;99.90;;;;;;4974799;28;20046;-77
2021/01/18 07:06:38;;;;;;;88.82;25.83;;;0.80;99.90;;;;;;4974586;28;20533;-77
2021/01/18 07:09:12;;;;;;;96.57;25.58;;;0.80;99.90;;;;;;4974786;28;20535;-77
2021/01/18 07:11:38;;;;;;;95.22;27.45;;;0.90;99.90;;;;;;4974342;28;20632;-77
2021/01/18 07:14:06;;;;;;;91.72;25.25;;;1.00;99.90;;;;;;4974264;28;20062;-77
2021/01/18 07:16:33;;;;;;;95.38;24.55;;;1.00;99.90;;;;;;4974382;28;20037;-77
2021/01/18 07:19:00;;;;;;;87.93;22.98;;;1.10;99.90;;;;;;4974629;28;20027;-77
2021/01/18 07:22:09;;;;;;;90.38;22.95;;;1.20;99.90;;;;;;4974500;28;20023;-77
2021/01/18 07:24:42;;;;;;;87.35;21.15;;;1.20;99.90;;;;;;4969947;28;20043;-77
2021/01/18 07:27:15;;;;;;;110.25;23.00;;;1.30;99.90;;;;;;4954012;28;20114;-77
2021/01/18 07:29:40;;;;;;;76.13;21.55;;;1.40;99.90;;;;;;4971889;28;20035;-77
2021/01/18 07:32:08;;;;;;;85.93;22.80;;;1.40;99.90;;;;;;4974284;28;20540;-77
2021/01/18 07:34:35;;;;;;;86.15;23.55;;;1.40;99.90;;;;;;4972687;28;20135;-77
2021/01/18 07:37:09;;;;;;;89.35;23.50;;;1.50;99.90;;;;;;4973961;28;20491;-77
2021/01/18 07:39:36;;;;;;;85.32;23.42;;;1.50;99.90;;;;;;4974290;28;20030;-77
2021/01/18 07:42:02;;;;;;;93.78;23.52;;;1.50;99.90;;;;;;4974072;28;20023;-77
2021/01/18 07:44:37;;;;;;;79.38;21.00;;;1.50;99.90;;;;;;4969252;28;20443;-77
2021/01/18 07:47:05;;;;;;;93.80;20.95;;;1.40;99.90;;;;;;4964776;28;20117;-77
2021/01/18 07:49:38;;;;;;;106.93;22.08;;;1.50;99.90;;;;;;4972585;28;20030;-77
2021/01/18 07:52:27;;;;;;;82.07;21.70;;;1.50;99.90;;;;;;4973924;28;20062;-77
2021/01/18 07:54:54;;;;;;;66.75;17.80;;;1.60;99.90;;;;;;4971704;28;20035;-78
2021/01/18 07:57:27;;;;;;;72.82;18.15;;;1.60;99.90;;;;;;4973933;28;20023;-78
2021/01/18 08:00:18;;;;;;;71.20;13.90;;;1.70;99.90;;;;;;4969162;28;20609;-77
2021/01/18 08:02:48;;;;;;;72.78;14.07;;;1.80;99.90;;;;;;4966083;28;20491;-77
2021/01/18 08:05:20;;;;;;;83.07;13.55;;;1.90;99.90;;;;;;4969731;28;20512;-77
2021/01/18 08:08:13;;;;;;;105.90;11.75;;;2.00;99.90;;;;;;4973588;28;20035;-77
2021/01/18 08:10:55;;;;;;;69.20;8.13;;;2.10;99.90;;;;;;4972248;28;20185;-78
2021/01/18 08:13:30;;;;;;;99.00;10.65;;;2.20;99.90;;;;;;4968491;28;20058;-77
2021/01/18 08:15:58;;;;;;;76.97;10.77;;;2.30;99.90;;;;;;4953912;29;20024;-77
2021/01/18 08:18:28;;;;;;;87.18;11.60;;;2.40;99.90;;;;;;4954007;29;20514;-77
2021/01/18 08:20:54;;;;;;;102.85;12.15;;;2.40;99.90;;;;;;4952888;29;20030;-77
2021/01/18 08:23:42;;;;;;;108.28;14.38;;;2.40;99.90;;;;;;4965016;28;20029;-77
2021/01/18 08:26:10;;;;;;;91.05;11.65;;;2.50;99.90;;;;;;4973489;28;20054;-77
2021/01/18 08:28:36;;;;;;;71.57;10.95;;;2.50;99.90;;;;;;4973085;28;20483;-77
2021/01/18 08:31:02;;;;;;;128.68;12.65;;;2.60;99.90;;;;;;4973185;28;20026;-77
2021/01/18 08:33:28;;;;;;;128.02;12.98;;;2.60;99.90;;;;;;4972937;28;20038;-78
2021/01/18 08:35:57;;;;;;;116.47;13.73;;;2.60;99.90;;;;;;4987999;28;20077;-77
2021/01/18 08:38:25;;;;;;;124.10;14.85;;;2.70;99.90;;;;;;4988540;28;20464;-78
2021/01/18 08:41:08;;;;;;;101.60;12.25;;;2.80;99.90;;;;;;4973094;28;20031;-77
2021/01/18 08:43:53;;;;;;;124.27;14.53;;;2.90;99.90;;;;;;4972629;28;20022;-78
2021/01/18 08:46:39;;;;;;;114.70;11.38;;;2.80;99.90;;;;;;4968414;28;20026;-78
2021/01/18 08:49:21;;;;;;;105.43;9.93;;;2.80;99.90;;;;;;4970936;28;20537;-78
2021/01/18 08:51:48;;;;;;;82.28;10.80;;;2.90;99.90;;;;;;4971095;28;20380;-78
2021/01/18 08:54:36;;;;;;;100.85;9.77;;;3.00;99.90;;;;;;4972731;28;20434;-78
2021/01/18 08:57:17;;;;;;;86.10;10.00;;;3.00;99.90;;;;;;4972789;28;20023;-78
2021/01/18 08:59:43;;;;;;;90.00;8.05;;;3.10;99.90;;;;;;4966222;28;20139;-78
2021/01/18 09:02:16;;;;;;;51.38;7.97;;;3.10;99.90;;;;;;4953472;28;20525;-77
2021/01/18 09:04:41;;;;;;;61.85;9.95;;;3.30;99.90;;;;;;4954109;28;20024;-77
2021/01/18 09:07:10;;;;;;;52.53;6.13;;;3.30;99.90;;;;;;4973029;28;20030;-77
2021/01/18 09:09:39;;;;;;;77.93;6.28;;;3.40;99.90;;;;;;4976467;28;20034;-77
2021/01/18 09:12:10;;;;;;;73.78;7.05;;;3.40;99.90;;;;;;4975477;28;20062;-77
2021/01/18 09:14:36;;;;;;;49.78;5.57;;;3.30;99.90;;;;;;4976424;28;20050;-77
2021/01/18 09:17:11;;;;;;;54.20;5.25;;;3.20;99.90;;;;;;4976714;28;20031;-78
2021/01/18 09:19:55;;;;;;;44.30;4.90;;;3.10;99.90;;;;;;4957350;29;20111;-78
2021/01/18 09:22:22;;;;;;;36.05;4.68;;;3.10;99.90;;;;;;4957394;28;20033;-79
2021/01/18 09:24:50;;;;;;;36.60;3.85;;;3.10;99.90;;;;;;4955761;29;20041;-79
2021/01/18 09:27:16;;;;;;;32.60;3.35;;;3.00;99.90;;;;;;4957213;29;20023;-79
2021/01/18 09:29:42;;;;;;;25.13;2.80;;;2.90;99.90;;;;;;4974640;28;20030;-78
2021/01/18 09:32:08;;;;;;;12.27;2.05;;;2.80;99.90;;;;;;4975286;28;20022;-78
2021/01/18 09:34:34;;;;;;;18.00;2.20;;;2.80;99.90;;;;;;4974953;28;20058;-77
2021/01/18 09:37:06;;;;;;;16.65;1.73;;;2.80;99.90;;;;;;4971574;28;20043;-77
2021/01/18 09:39:32;;;;;;;17.50;1.40;;;2.70;99.90;;;;;;4957142;28;20411;-77
2021/01/18 09:41:59;;;;;;;22.90;1.65;;;2.70;99.90;;;;;;4956875;28;20035;-77
2021/01/18 09:44:25;;;;;;;14.25;1.70;;;2.70;99.90;;;;;;4971542;28;20069;-77
2021/01/18 09:46:51;;;;;;;18.58;1.65;;;2.80;99.90;;;;;;4976087;28;20031;-76
2021/01/18 09:49:28;;;;;;;6.65;1.42;;;2.80;99.90;;;;;;4976142;28;20018;-77
2021/01/18 09:51:57;;;;;;;16.13;1.70;;;2.80;99.90;;;;;;4976156;28;20077;-78
2021/01/18 09:54:22;;;;;;;13.80;2.05;;;2.80;99.90;;;;;;4974153;28;20038;-78
2021/01/18 09:56:52;;;;;;;31.17;3.20;;;2.90;99.90;;;;;;4976221;28;20552;-78
2021/01/18 09:59:19;;;;;;;22.00;2.90;;;2.90;99.90;;;;;;4975568;28;20031;-78
2021/01/18 10:01:49;;;;;;;29.02;3.58;;;2.90;99.90;;;;;;4975950;28;20427;-78
2021/01/18 10:04:23;;;;;;;25.42;4.10;;;3.00;99.90;;;;;;4975591;28;20105;-78
2021/01/18 10:06:50;;;;;;;22.55;2.95;;;3.00;99.90;;;;;;4974472;28;20055;-77
2021/01/18 10:09:21;;;;;;;23.27;3.90;;;3.00;99.90;;;;;;4974590;28;20030;-78
2021/01/18 10:11:48;;;;;;;52.65;7.15;;;3.10;99.90;;;;;;4975299;28;20033;-77
2021/01/18 10:14:24;;;;;;;25.92;4.65;;;3.10;99.90;;;;;;4970966;28;20118;-78
2021/01/18 10:17:01;;;;;;;26.13;4.88;;;3.10;99.90;;;;;;4955245;28;20035;-78
2021/01/18 10:19:27;;;;;;;38.05;7.78;;;3.10;99.90;;;;;;4955813;28;20101;-77
2021/01/18 10:21:54;;;;;;;32.85;6.80;;;3.20;99.90;;;;;;4958184;28;20663;-77
2021/01/18 10:24:27;;;;;;;28.95;7.43;;;3.10;99.90;;;;;;4975437;28;20114;-77
2021/01/18 10:27:04;;;;;;;28.35;8.27;;;3.10;99.90;;;;;;4975486;28;20094;-77
2021/01/18 10:29:30;;;;;;;30.13;8.90;;;3.10;99.90;;;;;;4975126;28;20026;-76
2021/01/18 10:31:57;;;;;;;27.50;8.45;;;3.20;99.90;;;;;;4975330;28;20042;-76
2021/01/18 10:34:22;;;;;;;26.23;9.15;;;3.20;99.90;;;;;;4969904;28;20042;-76
2021/01/18 10:36:51;;;;;;;21.80;8.68;;;3.20;99.90;;;;;;4972178;28;20018;-76
2021/01/18 10:39:25;;;;;;;24.95;9.13;;;3.20;99.90;;;;;;4974738;28;20034;-80
2021/01/18 10:42:05;;;;;;;28.83;9.73;;;3.20;99.90;;;;;;4973859;28;20083;-77
2021/01/18 10:44:32;;;;;;;24.25;9.30;;;3.20;99.90;;;;;;4970106;28;20578;-78
2021/01/18 10:46:58;;;;;;;26.83;10.25;;;3.20;99.90;;;;;;4955104;28;20031;-78
2021/01/18 10:49:28;;;;;;;21.10;8.90;;;3.20;99.90;;;;;;4964653;28;20147;-77
2021/01/18 10:52:12;;;;;;;18.45;9.02;;;3.20;99.90;;;;;;4975035;28;20027;-78
2021/01/18 10:54:37;;;;;;;;;;;3.20;99.90;;;;;;4972772;28;20030;-78
2021/01/18 10:57:19;;;;;;;21.40;9.48;;;3.20;99.90;;;;;;4973166;28;19914;-77
2021/01/18 10:59:45;;;;;;;17.30;9.85;;;3.20;99.90;;;;;;4974120;28;20023;-77
2021/01/18 11:02:13;;;;;;;20.13;9.32;;;3.20;99.90;;;;;;4974655;28;20031;-78
2021/01/18 11:04:46;;;;;;;22.30;10.25;;;3.20;99.90;;;;;;4973480;28;20027;-77
2021/01/18 11:07:13;;;;;;;23.00;10.52;;;3.20;99.90;;;;;;4972558;28;20053;-78
2021/01/18 11:09:39;;;;;;;27.77;10.93;;;3.20;99.90;;;;;;4973297;28;20038;-78
2021/01/18 11:12:06;;;;;;;21.25;10.05;;;3.20;99.90;;;;;;4974485;28;20093;-77
2021/01/18 11:14:32;;;;;;;23.80;10.57;;;3.20;99.90;;;;;;4972425;28;20027;-77
2021/01/18 11:17:07;;;;;;;21.85;9.70;;;3.20;99.90;;;;;;4974592;28;20019;-77
2021/01/18 11:19:34;;;;;;;20.92;10.13;;;3.20;99.90;;;;;;4985561;28;20069;-77
2021/01/18 11:22:00;;;;;;;27.38;10.65;;;3.30;99.90;;;;;;4993762;28;20420;-77
2021/01/18 11:24:25;;;;;;;29.73;10.75;;;3.30;99.90;;;;;;4983537;28;20074;-77
2021/01/18 11:26:52;;;;;;;25.08;11.40;;;3.30;99.90;;;;;;4974135;28;20487;-77
2021/01/18 11:29:19;;;;;;;30.98;11.18;;;3.40;99.90;;;;;;4973640;28;20062;-78
2021/01/18 11:31:45;;;;;;;26.48;9.77;;;3.50;99.90;;;;;;4972700;28;20081;-77
2021/01/18 11:34:12;;;;;;;25.77;9.98;;;3.60;99.90;;;;;;4967971;28;20691;-77
2021/01/18 11:36:39;;;;;;;25.73;10.20;;;3.60;99.90;;;;;;4973233;28;20023;-78
2021/01/18 11:39:05;;;;;;;29.40;10.95;;;3.60;99.90;;;;;;4974187;28;20387;-77
2021/01/18 11:41:34;;;;;;;30.90;11.30;;;3.60;99.90;;;;;;4958620;28;20027;-77
2021/01/18 11:44:00;;;;;;;28.40;11.98;;;3.70;99.90;;;;;;4966608;28;20166;-78
2021/01/18 11:46:25;;;;;;;29.27;10.93;;;3.70;99.90;;;;;;4988054;28;20026;-77
2021/01/18 11:48:51;;;;;;;24.90;10.27;;;3.70;99.90;;;;;;4972508;28;20033;-77
2021/01/18 11:51:17;;;;;;;31.20;10.73;;;3.70;99.90;;;;;;4974329;28;20114;-77
2021/01/18 11:53:42;;;;;;;35.45;11.40;;;3.80;99.90;;;;;;4973484;28;20058;-77
2021/01/18 11:56:08;;;;;;;31.40;11.10;;;3.80;99.90;;;;;;4972411;28;20031;-77
2021/01/18 11:58:33;;;;;;;23.05;9.88;;;3.80;99.90;;;;;;4973461;28;20098;-77
2021/01/18 12:00:59;;;;;;;25.73;9.82;;;3.90;99.90;;;;;;4971933;28;20022;-78
2021/01/18 12:03:25;;;;;;;25.65;9.90;;;3.90;99.90;;;;;;4973461;28;20058;-78
2021/01/18 12:05:51;;;;;;;30.92;8.88;;;3.90;99.90;;;;;;4973326;28;20026;-78
2021/01/18 12:08:16;;;;;;;25.20;8.75;;;3.90;99.90;;;;;;4973275;28;20039;-77
2021/01/18 12:10:42;;;;;;;31.92;7.50;;;3.90;99.90;;;;;;4973639;28;20027;-77
2021/01/18 12:13:08;;;;;;;28.00;6.65;;;4.00;99.90;;;;;;4971877;28;20033;-78
2021/01/18 12:15:34;;;;;;;34.70;5.75;;;4.10;99.90;;;;;;4973186;28;20023;-78
2021/01/18 12:18:00;;;;;;;28.00;3.83;;;4.20;99.90;;;;;;4973046;28;20038;-77
2021/01/18 12:20:26;;;;;;;23.98;5.03;;;4.30;99.90;;;;;;4973572;28;20066;-77
2021/01/18 12:22:53;;;;;;;19.80;3.25;;;4.30;99.90;;;;;;4976655;28;20026;-76
2021/01/18 12:25:19;;;;;;;15.02;1.88;;;4.40;99.90;;;;;;4991157;28;20030;-76
2021/01/18 12:27:57;;;;;;;21.95;2.72;;;4.40;99.90;;;;;;4971961;28;20037;-76
2021/01/18 12:30:26;;;;;;;11.40;2.22;;;4.50;99.90;;;;;;4971405;28;20109;-76
2021/01/18 12:32:52;;;;;;;16.90;3.03;;;4.40;99.90;;;;;;4973067;28;20031;-76
2021/01/18 12:35:18;;;;;;;23.15;2.72;;;4.40;99.90;;;;;;4972533;28;20073;-77
2021/01/18 12:37:44;;;;;;;8.32;1.92;;;4.40;99.90;;;;;;4973223;28;20030;-76
2021/01/18 12:40:11;;;;;;;27.95;3.35;;;4.50;99.90;;;;;;4973085;28;20023;-76
2021/01/18 12:42:47;;;;;;;29.83;2.42;;;4.50;99.90;;;;;;4972717;28;20504;-76
2021/01/18 12:45:15;;;;;;;19.15;2.83;;;4.60;99.90;;;;;;4953204;28;20436;-77
2021/01/18 12:47:40;;;;;;;12.98;2.40;;;4.60;99.90;;;;;;4953738;28;20110;-76
2021/01/18 12:50:08;;;;;;;25.63;2.88;;;4.70;99.90;;;;;;4952470;29;20499;-76
2021/01/18 12:52:33;;;;;;;19.50;2.85;;;4.60;99.90;;;;;;4953472;28;20038;-76